Terminal Aerodrome Forecast
Issued by NWS

Current Version | Previous Version | Text Only | Print | Product List | Glossary On
Versions: 1 2 3 4 5 6 7 8 9 10 11 12 13 14 15
000
FTUS42 KGSP 181100
TAFHKY
TAF
KHKY 181133Z 1812/1912 04005KT P6SM FEW050 OVC200
     FM181800 05007KT P6SM SCT050 OVC120
     FM190200 03008KT P6SM VCSH OVC025
     FM190400 02008KT P6SM -RA OVC015
     FM190900 02007KT 4SM -RA BR OVC008=

USA.gov is the U.S. government's official web portal to all federal, state and local government web resources and services.